sensor_id;sensor_type;location;lat;lon;timestamp;temperature;humidity
12374;DHT22;6251;51.762;8.660;2022-08-11T02:51:31;15.50;99.90
12374;DHT22;6251;51.762;8.660;2022-08-11T05:16:11;14.40;99.90
12374;DHT22;6251;51.762;8.660;2022-08-11T05:27:04;14.50;99.90
12374;DHT22;6251;51.762;8.660;2022-08-11T05:38:00;14.70;99.90
12374;DHT22;6251;51.762;8.660;2022-08-11T05:48:20;15.00;99.90
12374;DHT22;6251;51.762;8.660;2022-08-11T05:58:42;15.10;99.90
12374;DHT22;6251;51.762;8.660;2022-08-11T06:08:45;15.40;99.90
12374;DHT22;6251;51.762;8.660;2022-08-11T06:18:47;15.70;99.90
12374;DHT22;6251;51.762;8.660;2022-08-11T06:28:48;16.10;99.90
12374;DHT22;6251;51.762;8.660;2022-08-11T06:39:16;16.60;99.90
12374;DHT22;6251;51.762;8.660;2022-08-11T06:59:55;17.40;99.90
12374;DHT22;6251;51.762;8.660;2022-08-11T07:21:14;18.40;99.90
12374;DHT22;6251;51.762;8.660;2022-08-11T07:31:44;18.80;99.90
12374;DHT22;6251;51.762;8.660;2022-08-11T07:41:53;19.40;99.90
12374;DHT22;6251;51.762;8.660;2022-08-11T07:51:54;19.80;99.90
12374;DHT22;6251;51.762;8.660;2022-08-11T08:02:14;20.30;99.90
12374;DHT22;6251;51.762;8.660;2022-08-11T08:13:07;20.70;99.90
12374;DHT22;6251;51.762;8.660;2022-08-11T08:45:05;22.30;99.90
12374;DHT22;6251;51.762;8.660;2022-08-11T08:55:10;22.70;99.90
12374;DHT22;6251;51.762;8.660;2022-08-11T09:25:36;23.90;97.80
12374;DHT22;6251;51.762;8.660;2022-08-11T09:35:57;24.20;96.80
12374;DHT22;6251;51.762;8.660;2022-08-11T09:46:26;24.50;96.80
12374;DHT22;6251;51.762;8.660;2022-08-11T09:56:28;25.10;95.10
12374;DHT22;6251;51.762;8.660;2022-08-11T12:30:12;28.30;84.70
12374;DHT22;6251;51.762;8.660;2022-08-11T13:10:44;29.20;80.00
12374;DHT22;6251;51.762;8.660;2022-08-11T13:21:04;29.40;79.10
12374;DHT22;6251;51.762;8.660;2022-08-11T13:31:05;29.40;80.00
12374;DHT22;6251;51.762;8.660;2022-08-11T13:41:11;29.50;75.30
12374;DHT22;6251;51.762;8.660;2022-08-11T13:51:31;29.60;80.50
12374;DHT22;6251;51.762;8.660;2022-08-11T14:01:43;29.60;76.00
12374;DHT22;6251;51.762;8.660;2022-08-11T14:11:46;29.80;74.30
12374;DHT22;6251;51.762;8.660;2022-08-11T14:22:06;29.90;78.50
12374;DHT22;6251;51.762;8.660;2022-08-11T14:32:09;29.90;77.70
12374;DHT22;6251;51.762;8.660;2022-08-11T14:42:13;30.00;74.80
12374;DHT22;6251;51.762;8.660;2022-08-11T14:52:33;30.10;75.10
12374;DHT22;6251;51.762;8.660;2022-08-11T15:02:37;30.20;73.00
12374;DHT22;6251;51.762;8.660;2022-08-11T15:12:56;30.30;74.40
12374;DHT22;6251;51.762;8.660;2022-08-11T15:22:57;30.30;73.80
12374;DHT22;6251;51.762;8.660;2022-08-11T15:33:17;30.40;73.50
12374;DHT22;6251;51.762;8.660;2022-08-11T15:43:41;30.50;74.60
12374;DHT22;6251;51.762;8.660;2022-08-11T16:22:27;30.30;69.50
12374;DHT22;6251;51.762;8.660;2022-08-11T16:32:40;30.00;68.90
12374;DHT22;6251;51.762;8.660;2022-08-11T16:42:45;30.00;68.80
12374;DHT22;6251;51.762;8.660;2022-08-11T16:53:05;29.50;74.20
12374;DHT22;6251;51.762;8.660;2022-08-11T17:03:06;29.20;75.40
12374;DHT22;6251;51.762;8.660;2022-08-11T17:13:36;28.90;72.80
12374;DHT22;6251;51.762;8.660;2022-08-11T17:23:42;28.80;73.10
12374;DHT22;6251;51.762;8.660;2022-08-11T17:33:50;28.90;71.50
12374;DHT22;6251;51.762;8.660;2022-08-11T17:44:10;28.70;74.50
12374;DHT22;6251;51.762;8.660;2022-08-11T17:54:32;28.50;78.50
12374;DHT22;6251;51.762;8.660;2022-08-11T18:04:53;28.20;76.80
12374;DHT22;6251;51.762;8.660;2022-08-11T18:14:55;27.80;79.20
12374;DHT22;6251;51.762;8.660;2022-08-11T18:25:20;27.40;77.00
12374;DHT22;6251;51.762;8.660;2022-08-11T18:35:41;27.00;78.70
12374;DHT22;6251;51.762;8.660;2022-08-11T18:46:05;26.50;81.10
12374;DHT22;6251;51.762;8.660;2022-08-11T18:56:26;26.00;81.80
12374;DHT22;6251;51.762;8.660;2022-08-11T19:06:53;25.50;84.90
12374;DHT22;6251;51.762;8.660;2022-08-11T19:17:14;25.00;84.10
12374;DHT22;6251;51.762;8.660;2022-08-11T19:27:35;24.60;87.80
12374;DHT22;6251;51.762;8.660;2022-08-11T19:37:56;24.20;87.90
12374;DHT22;6251;51.762;8.660;2022-08-11T19:48:18;23.80;87.30
12374;DHT22;6251;51.762;8.660;2022-08-11T19:58:39;23.40;88.40
12374;DHT22;6251;51.762;8.660;2022-08-11T20:09:01;23.10;90.20
12374;DHT22;6251;51.762;8.660;2022-08-11T20:19:23;22.70;90.60
12374;DHT22;6251;51.762;8.660;2022-08-11T20:29:44;22.40;90.90
12374;DHT22;6251;51.762;8.660;2022-08-11T20:40:06;22.20;91.30
12374;DHT22;6251;51.762;8.660;2022-08-11T20:50:26;21.90;91.70
12374;DHT22;6251;51.762;8.660;2022-08-11T23:02:50;19.30;99.10
12374;DHT22;6251;51.762;8.660;2022-08-11T23:13:10;19.20;99.60
